Hilo, HI (96720)

5:56 AM HST on August 23, 2017 (GMT -1000)
Sunrise Estates | | Change Station
Active Advisory: Special Statement

Elev 413 ft 19.70 °N, 155.10 °W | Updated 1 second ago

Overcast
Overcast
73.4 °F
Feels Like 74 °F
N
0.0
Wind Variable Wind from SW
Gusts 0.0 mph

Today
High -- | Low -- °F
--% Chance of Precip.
Yesterday
High -- | Low -- °F
Precip. -- in
Pressure 30.00 in
Visibility 10.0 miles
Clouds Overcast 6500 ft
Heat Index 74 °F
Dew Point 67 °F
Humidity 80%
Rainfall 0.00 in
Snow Depth Not available.
6:02 AM 6:42 PM
Waxing Crescent, 4% visible
METAR PHTO 231453Z AUTO 23004KT 10SM OVC065 23/19 A3000 RMK AO2 SLP157 T02280189 56006 TSNO
Pressure 30.00 in
Visibility 10.0 miles
Clouds Overcast 6500 ft
Heat Index 74 °F
Dew Point 67 °F
Humidity 80%
Rainfall 0.00 in
Snow Depth Not available.
6:02 AM 6:42 PM
Waxing Crescent, 4% visible
METAR PHTO 231453Z AUTO 23004KT 10SM OVC065 23/19 A3000 RMK AO2 SLP157 T02280189 56006 TSNO

Get Your Daily Forecast Email!

Thanks for signing up!

Be on the lookout for a verification email in your inbox.

You'll start receiving severe weather alerts in your inbox..

×

10-Day Weather Forecast

Almanac

Astronomy

Aug. 23, 2017 Rise Set
Actual Time
Civil Twilight
Nautical Twilight
Astronomical Twilight
Moon
Length of Visible Light
Length of Day
Tomorrow will be .
, % of the Moon is Illuminated

Today's Extremes

State Highs State Lows

Community

WunderPhotos

Category 6

Welcome to Category 6. This is the collective home for Weather Underground's featured writeups by Dr. Jeff Masters (right), Bob Henson (left), Chris Burt, and other regular contributors.

Nearby

Air Quality

  Air Quality AQ Index Pollutant
Not available.

Snow Depth

Station Depth Elevation

Earthquake Activity

City Distance Mag. Time & Date
Minimum magnitude displayed is 2.5.

Coastal Water Temperatures

Place Temperature

Stations

Nearby Weather Stations

Station Location Temp. Windchill Dew Point Humidity Wind Precip. Elev Updated Type
                   

Watches & Warnings

Special Statement
Issued: 3:42 PM HST Aug. 22, 2017 – National Weather Service

... Coastal flooding possible through Wednesday...

The sea level around the islands is running as much as a foot
above the values shown by tide predictions. The peak high tides
of the month will roll in on top of the elevated sea level.

Peak water levels will occur during the afternoons and evenings.
During this time, you may encounter flooding of beach areas that
are normally dry and inundation of docks, boat ramps and other
coastal infrastructure. Be prepared for salt water covering some
roads. Coastal flooding will end during the second half of the week
as the peak daily tides diminish.

For details on the times and heights of The Tides, please see
noaa's tides and currents web site.